createdAt,value
2022-08-25T00:02:21.660Z,16.55
2022-08-25T00:07:44.135Z,16.61
2022-08-25T00:13:06.185Z,16.84
2022-08-25T00:18:28.215Z,16.88
2022-08-25T00:23:50.713Z,16.80
2022-08-25T00:29:13.143Z,16.61
2022-08-25T00:34:38.362Z,16.66
2022-08-25T00:40:00.469Z,16.63
2022-08-25T00:45:23.707Z,16.48
2022-08-25T00:50:45.585Z,16.06
2022-08-25T00:56:08.470Z,16.30
2022-08-25T01:01:31.004Z,16.36
2022-08-25T01:06:58.522Z,16.39
2022-08-25T01:12:21.428Z,15.83
2022-08-25T01:17:50.235Z,16.21
2022-08-25T01:23:12.516Z,16.18
2022-08-25T01:28:37.044Z,16.16
2022-08-25T01:33:59.974Z,16.12
2022-08-25T01:39:22.495Z,16.06
2022-08-25T01:44:46.437Z,15.93
2022-08-25T01:50:10.954Z,15.82
2022-08-25T01:55:52.034Z,15.97
2022-08-25T02:01:20.029Z,15.78
2022-08-25T02:06:42.315Z,15.82
2022-08-25T02:12:05.411Z,15.88
2022-08-25T02:17:28.034Z,15.76
2022-08-25T02:22:56.566Z,15.87
2022-08-25T02:28:19.376Z,15.80
2022-08-25T02:33:41.385Z,15.95
2022-08-25T02:39:06.374Z,16.00
2022-08-25T02:44:28.364Z,16.20
2022-08-25T02:49:50.174Z,16.09
2022-08-25T02:55:14.676Z,15.93
2022-08-25T03:00:37.984Z,16.25
2022-08-25T03:06:00.565Z,16.23
2022-08-25T03:11:23.055Z,16.08
2022-08-25T03:16:46.319Z,16.29
2022-08-25T03:22:08.523Z,16.30
2022-08-25T03:27:31.396Z,16.27
2022-08-25T03:32:53.575Z,16.48
2022-08-25T03:38:16.135Z,16.50
2022-08-25T03:43:39.353Z,16.70
2022-08-25T03:49:06.235Z,16.62
2022-08-25T03:54:27.924Z,16.87
2022-08-25T03:59:50.124Z,16.90
2022-08-25T04:05:13.264Z,17.00
2022-08-25T04:10:38.164Z,17.53
2022-08-25T04:16:01.104Z,17.70
2022-08-25T04:21:28.005Z,17.90
2022-08-25T04:26:52.019Z,18.38
2022-08-25T04:32:14.596Z,19.41
2022-08-25T04:37:36.697Z,19.78
2022-08-25T04:42:58.530Z,20.13
2022-08-25T04:48:21.600Z,20.42
2022-08-25T04:53:44.161Z,20.70
2022-08-25T04:59:09.252Z,21.26
2022-08-25T05:04:31.741Z,21.77
2022-08-25T05:09:57.944Z,22.09
2022-08-25T05:15:49.473Z,22.60
2022-08-25T05:21:19.238Z,23.42
2022-08-25T05:26:41.562Z,23.75
2022-08-25T05:32:04.297Z,24.15
2022-08-25T05:37:26.371Z,24.45
2022-08-25T05:42:48.120Z,24.32
2022-08-25T05:48:09.961Z,24.88
2022-08-25T05:53:33.763Z,25.34
2022-08-25T05:58:56.041Z,25.57
2022-08-25T06:04:23.080Z,25.79
2022-08-25T06:09:46.942Z,26.12
2022-08-25T06:15:09.883Z,26.30
2022-08-25T06:20:38.582Z,26.58
2022-08-25T06:26:00.742Z,26.92
2022-08-25T06:31:25.804Z,26.90
2022-08-25T06:36:48.986Z,27.23
2022-08-25T06:42:11.702Z,27.40
2022-08-25T06:47:34.905Z,27.44
2022-08-25T06:52:57.582Z,27.79
2022-08-25T06:58:19.766Z,27.97
2022-08-25T07:03:42.901Z,28.27
2022-08-25T07:09:12.411Z,28.14
2022-08-25T07:14:35.902Z,28.13
2022-08-25T07:19:59.122Z,28.30
2022-08-25T07:25:21.790Z,28.52
2022-08-25T07:30:44.102Z,28.74
2022-08-25T07:36:06.544Z,28.72
2022-08-25T07:41:29.321Z,28.65
2022-08-25T07:46:52.470Z,29.00
2022-08-25T07:52:16.682Z,29.15
2022-08-25T07:57:43.951Z,29.31
2022-08-25T08:03:08.219Z,29.47
2022-08-25T08:08:34.584Z,29.63
2022-08-25T08:13:58.863Z,29.68
2022-08-25T08:19:23.009Z,29.70
2022-08-25T08:24:54.685Z,29.55
2022-08-25T08:30:18.752Z,29.58
2022-08-25T08:35:43.312Z,29.65
2022-08-25T08:48:04.476Z,29.62
2022-08-25T08:53:37.398Z,29.43
2022-08-25T08:59:06.421Z,29.31
2022-08-25T09:04:36.492Z,29.30
2022-08-25T09:09:59.061Z,29.25
2022-08-25T09:16:01.920Z,29.39
2022-08-25T09:21:59.626Z,29.37
2022-08-25T09:27:47.660Z,29.24
2022-08-25T09:33:16.170Z,29.42
2022-08-25T09:38:49.350Z,29.66
2022-08-25T09:44:34.222Z,29.52
2022-08-25T09:50:05.419Z,29.61
2022-08-25T09:55:32.778Z,29.81
2022-08-25T10:01:13.711Z,29.83
2022-08-25T10:06:48.122Z,29.66
2022-08-25T10:12:42.572Z,29.70
2022-08-25T10:18:29.390Z,29.89
2022-08-25T10:23:56.521Z,29.50
2022-08-25T10:29:44.420Z,29.57
2022-08-25T10:36:01.822Z,29.66
2022-08-25T10:41:48.283Z,30.14
2022-08-25T10:47:29.902Z,30.11
2022-08-25T10:53:18.090Z,30.22
2022-08-25T10:59:06.822Z,30.06
2022-08-25T11:04:42.964Z,30.24
2022-08-25T11:10:30.140Z,30.26
2022-08-25T11:16:17.004Z,30.34
2022-08-25T11:22:02.240Z,30.44
2022-08-25T11:27:33.102Z,30.46
2022-08-25T11:32:56.382Z,30.47
2022-08-25T11:38:37.298Z,30.50
2022-08-25T11:44:18.650Z,30.51
2022-08-25T11:49:52.089Z,30.50
2022-08-25T11:55:16.169Z,30.54
2022-08-25T12:00:45.120Z,30.63
2022-08-25T12:06:27.860Z,30.58
2022-08-25T12:11:58.803Z,30.42
2022-08-25T12:17:27.970Z,30.27
2022-08-25T12:22:58.448Z,30.30
2022-08-25T12:28:38.102Z,30.32
2022-08-25T12:34:19.850Z,30.47
2022-08-25T12:39:52.550Z,30.33
2022-08-25T12:45:33.657Z,30.23
2022-08-25T12:51:07.351Z,29.93
2022-08-25T12:56:39.542Z,29.46
2022-08-25T13:02:32.780Z,29.79
2022-08-25T13:08:15.190Z,29.74
2022-08-25T13:14:05.159Z,29.68
2022-08-25T13:19:29.134Z,29.69
2022-08-25T13:30:35.384Z,29.81
2022-08-25T13:36:17.642Z,29.86
2022-08-25T13:41:46.659Z,29.88
2022-08-25T13:47:32.481Z,29.88
2022-08-25T13:53:06.141Z,29.77
2022-08-25T13:58:45.277Z,29.57
2022-08-25T14:04:32.280Z,29.51
2022-08-25T14:09:59.501Z,29.53
2022-08-25T14:15:22.045Z,29.48
2022-08-25T14:20:48.580Z,29.35
2022-08-25T14:26:12.622Z,29.24
2022-08-25T14:31:40.106Z,29.01
2022-08-25T14:37:02.211Z,29.06
2022-08-25T14:42:25.259Z,28.92
2022-08-25T14:47:49.743Z,28.72
2022-08-25T14:53:12.900Z,28.58
2022-08-25T14:58:35.476Z,28.07
2022-08-25T15:04:24.686Z,27.96
2022-08-25T15:09:49.648Z,28.08
2022-08-25T15:15:14.159Z,27.66
2022-08-25T15:20:38.231Z,27.55
2022-08-25T15:26:05.254Z,27.42
2022-08-25T15:31:30.141Z,27.24
2022-08-25T15:36:54.829Z,27.01
2022-08-25T15:42:17.347Z,26.61
2022-08-25T15:47:40.628Z,26.37
2022-08-25T15:53:02.870Z,26.27
2022-08-25T15:58:25.670Z,26.11
2022-08-25T16:03:48.600Z,25.89
2022-08-25T16:09:12.841Z,25.45
2022-08-25T16:14:35.188Z,25.28
2022-08-25T16:19:57.180Z,25.13
2022-08-25T16:25:19.680Z,24.52
2022-08-25T16:30:52.586Z,24.50
2022-08-25T16:36:21.526Z,24.38
2022-08-25T16:41:43.812Z,24.20
2022-08-25T16:47:08.686Z,24.06
2022-08-25T16:52:51.819Z,23.90
2022-08-25T16:58:13.900Z,23.54
2022-08-25T17:03:36.700Z,23.31
2022-08-25T17:08:58.820Z,23.17
2022-08-25T17:14:20.680Z,23.18
2022-08-25T17:19:45.844Z,22.91
2022-08-25T17:25:09.890Z,22.96
2022-08-25T17:30:32.902Z,22.36
2022-08-25T17:35:57.430Z,22.57
2022-08-25T17:41:20.981Z,22.05
2022-08-25T17:46:47.363Z,22.19
2022-08-25T17:52:09.940Z,22.32
2022-08-25T17:57:32.459Z,21.73
2022-08-25T18:02:54.879Z,21.71
2022-08-25T18:08:18.692Z,21.40
2022-08-25T18:13:43.082Z,21.50
2022-08-25T18:19:06.555Z,21.38
2022-08-25T18:24:32.283Z,21.19
2022-08-25T18:29:54.382Z,21.00
2022-08-25T18:35:21.434Z,20.95
2022-08-25T18:40:45.331Z,20.80
2022-08-25T18:46:08.429Z,20.82
2022-08-25T18:51:33.214Z,20.67
2022-08-25T18:56:55.502Z,20.70
2022-08-25T19:02:20.535Z,20.56
2022-08-25T19:07:51.686Z,20.36
2022-08-25T19:13:15.002Z,20.48
2022-08-25T19:18:37.822Z,20.34
2022-08-25T19:24:26.069Z,20.52
2022-08-25T19:29:48.962Z,20.43
2022-08-25T19:35:21.519Z,19.66
2022-08-25T19:41:15.840Z,20.12
2022-08-25T19:46:46.569Z,19.42
2022-08-25T19:52:15.080Z,19.52
2022-08-25T20:21:30.914Z,19.10
2022-08-25T20:27:02.154Z,19.35
2022-08-25T20:32:35.630Z,19.14
2022-08-25T20:38:04.910Z,18.98
2022-08-25T20:50:29.863Z,19.15
2022-08-25T20:55:57.841Z,18.94
2022-08-25T21:49:16.010Z,17.45
2022-08-25T21:54:53.610Z,17.48
2022-08-25T22:06:22.199Z,17.17
2022-08-25T22:18:03.389Z,16.91
2022-08-25T22:23:28.427Z,17.08
2022-08-25T22:28:50.441Z,17.41
2022-08-25T22:34:12.319Z,17.38
2022-08-25T22:39:34.670Z,17.34
2022-08-25T22:44:56.610Z,17.19
2022-08-25T22:50:20.149Z,17.08
2022-08-25T22:55:44.850Z,16.97
2022-08-25T23:01:17.111Z,17.01
2022-08-25T23:06:40.348Z,17.01
2022-08-25T23:12:02.429Z,16.88
2022-08-25T23:17:24.679Z,16.78
2022-08-25T23:22:46.480Z,16.63
2022-08-25T23:28:11.930Z,16.39
2022-08-25T23:33:34.290Z,16.59
2022-08-25T23:38:56.489Z,16.46
2022-08-25T23:44:19.812Z,16.05
2022-08-25T23:49:42.211Z,15.93
2022-08-25T23:55:05.114Z,16.42
